sensor_id;sensor_type;location;lat;lon;timestamp;P1;durP1;ratioP1;P2;durP2;ratioP2
54201;SDS011;40108;53.152;5.844;2023-04-24T00:01:47;8.80;;;7.32;;
54201;SDS011;40108;53.152;5.844;2023-04-24T00:04:12;9.13;;;7.63;;
54201;SDS011;40108;53.152;5.844;2023-04-24T00:06:41;11.13;;;8.00;;
54201;SDS011;40108;53.152;5.844;2023-04-24T00:09:08;12.48;;;8.32;;
54201;SDS011;40108;53.152;5.844;2023-04-24T00:11:35;11.30;;;8.90;;
54201;SDS011;40108;53.152;5.844;2023-04-24T00:14:01;11.63;;;9.02;;
54201;SDS011;40108;53.152;5.844;2023-04-24T00:16:27;11.50;;;7.93;;
54201;SDS011;40108;53.152;5.844;2023-04-24T00:18:53;12.70;;;9.20;;
54201;SDS011;40108;53.152;5.844;2023-04-24T00:21:19;14.40;;;8.63;;
54201;SDS011;40108;53.152;5.844;2023-04-24T00:23:45;11.45;;;9.25;;
54201;SDS011;40108;53.152;5.844;2023-04-24T00:26:11;11.00;;;8.95;;
54201;SDS011;40108;53.152;5.844;2023-04-24T00:28:37;11.52;;;9.35;;
54201;SDS011;40108;53.152;5.844;2023-04-24T00:31:02;11.75;;;8.90;;
54201;SDS011;40108;53.152;5.844;2023-04-24T00:33:28;9.82;;;8.82;;
54201;SDS011;40108;53.152;5.844;2023-04-24T00:35:54;13.32;;;9.40;;
54201;SDS011;40108;53.152;5.844;2023-04-24T00:38:20;11.52;;;9.73;;
54201;SDS011;40108;53.152;5.844;2023-04-24T00:40:47;10.63;;;9.52;;
54201;SDS011;40108;53.152;5.844;2023-04-24T00:43:14;12.35;;;10.93;;
54201;SDS011;40108;53.152;5.844;2023-04-24T00:45:41;12.60;;;9.43;;
54201;SDS011;40108;53.152;5.844;2023-04-24T00:48:07;10.63;;;9.50;;
54201;SDS011;40108;53.152;5.844;2023-04-24T00:50:33;10.65;;;9.50;;
54201;SDS011;40108;53.152;5.844;2023-04-24T00:53:00;11.50;;;10.30;;
54201;SDS011;40108;53.152;5.844;2023-04-24T00:55:26;10.10;;;9.13;;
54201;SDS011;40108;53.152;5.844;2023-04-24T00:57:52;11.70;;;10.35;;
54201;SDS011;40108;53.152;5.844;2023-04-24T01:00:17;10.82;;;9.82;;
54201;SDS011;40108;53.152;5.844;2023-04-24T01:02:44;10.27;;;9.27;;
54201;SDS011;40108;53.152;5.844;2023-04-24T01:05:11;11.48;;;9.75;;
54201;SDS011;40108;53.152;5.844;2023-04-24T01:07:38;12.45;;;10.80;;
54201;SDS011;40108;53.152;5.844;2023-04-24T01:10:06;11.18;;;9.50;;
54201;SDS011;40108;53.152;5.844;2023-04-24T01:12:33;10.75;;;9.63;;
54201;SDS011;40108;53.152;5.844;2023-04-24T01:14:59;11.00;;;9.40;;
54201;SDS011;40108;53.152;5.844;2023-04-24T01:17:25;10.10;;;8.75;;
54201;SDS011;40108;53.152;5.844;2023-04-24T01:19:51;10.35;;;9.27;;
54201;SDS011;40108;53.152;5.844;2023-04-24T01:22:21;10.77;;;9.50;;
54201;SDS011;40108;53.152;5.844;2023-04-24T01:24:47;10.52;;;9.25;;
54201;SDS011;40108;53.152;5.844;2023-04-24T01:27:13;9.98;;;8.98;;
54201;SDS011;40108;53.152;5.844;2023-04-24T01:29:39;11.48;;;9.35;;
54201;SDS011;40108;53.152;5.844;2023-04-24T01:32:06;9.70;;;8.80;;
54201;SDS011;40108;53.152;5.844;2023-04-24T01:34:32;11.73;;;9.23;;
54201;SDS011;40108;53.152;5.844;2023-04-24T01:36:58;10.15;;;9.15;;
54201;SDS011;40108;53.152;5.844;2023-04-24T01:39:24;10.48;;;9.38;;
54201;SDS011;40108;53.152;5.844;2023-04-24T01:41:54;10.27;;;9.27;;
54201;SDS011;40108;53.152;5.844;2023-04-24T01:44:20;11.73;;;9.68;;
54201;SDS011;40108;53.152;5.844;2023-04-24T01:46:46;9.80;;;8.73;;
54201;SDS011;40108;53.152;5.844;2023-04-24T01:49:12;11.40;;;10.13;;
54201;SDS011;40108;53.152;5.844;2023-04-24T01:51:38;11.05;;;9.98;;
54201;SDS011;40108;53.152;5.844;2023-04-24T01:54:04;14.57;;;10.23;;
54201;SDS011;40108;53.152;5.844;2023-04-24T01:56:31;12.63;;;10.60;;
54201;SDS011;40108;53.152;5.844;2023-04-24T01:58:58;12.35;;;10.93;;
54201;SDS011;40108;53.152;5.844;2023-04-24T02:01:25;13.68;;;11.57;;
54201;SDS011;40108;53.152;5.844;2023-04-24T02:03:51;11.82;;;10.63;;
54201;SDS011;40108;53.152;5.844;2023-04-24T02:06:17;13.82;;;12.43;;
54201;SDS011;40108;53.152;5.844;2023-04-24T02:08:42;16.73;;;13.27;;
54201;SDS011;40108;53.152;5.844;2023-04-24T02:11:08;14.85;;;13.35;;
54201;SDS011;40108;53.152;5.844;2023-04-24T02:13:34;20.40;;;14.38;;
54201;SDS011;40108;53.152;5.844;2023-04-24T02:16:00;16.83;;;13.63;;
54201;SDS011;40108;53.152;5.844;2023-04-24T02:18:26;15.25;;;13.68;;
54201;SDS011;40108;53.152;5.844;2023-04-24T02:20:52;16.75;;;13.95;;
54201;SDS011;40108;53.152;5.844;2023-04-24T02:23:18;16.52;;;14.07;;
54201;SDS011;40108;53.152;5.844;2023-04-24T02:25:44;16.00;;;13.52;;
54201;SDS011;40108;53.152;5.844;2023-04-24T02:28:10;21.00;;;14.35;;
54201;SDS011;40108;53.152;5.844;2023-04-24T02:30:36;16.73;;;13.82;;
54201;SDS011;40108;53.152;5.844;2023-04-24T02:33:02;19.60;;;14.80;;
54201;SDS011;40108;53.152;5.844;2023-04-24T02:35:28;18.80;;;15.82;;
54201;SDS011;40108;53.152;5.844;2023-04-24T02:37:54;15.63;;;12.98;;
54201;SDS011;40108;53.152;5.844;2023-04-24T02:40:19;15.43;;;12.75;;
54201;SDS011;40108;53.152;5.844;2023-04-24T02:42:45;13.88;;;11.25;;
54201;SDS011;40108;53.152;5.844;2023-04-24T02:45:11;13.88;;;11.43;;
54201;SDS011;40108;53.152;5.844;2023-04-24T02:47:36;9.18;;;7.80;;
54201;SDS011;40108;53.152;5.844;2023-04-24T02:50:02;5.93;;;5.28;;
54201;SDS011;40108;53.152;5.844;2023-04-24T02:52:28;5.45;;;3.97;;
54201;SDS011;40108;53.152;5.844;2023-04-24T02:54:54;3.78;;;3.40;;
54201;SDS011;40108;53.152;5.844;2023-04-24T02:57:20;3.38;;;2.90;;
54201;SDS011;40108;53.152;5.844;2023-04-24T02:59:46;5.32;;;3.13;;
54201;SDS011;40108;53.152;5.844;2023-04-24T03:02:11;3.70;;;3.28;;
54201;SDS011;40108;53.152;5.844;2023-04-24T03:04:37;3.38;;;3.08;;
54201;SDS011;40108;53.152;5.844;2023-04-24T03:07:02;4.05;;;3.58;;
54201;SDS011;40108;53.152;5.844;2023-04-24T03:09:29;5.40;;;3.47;;
54201;SDS011;40108;53.152;5.844;2023-04-24T03:11:55;4.28;;;3.88;;
54201;SDS011;40108;53.152;5.844;2023-04-24T03:14:21;4.18;;;3.40;;
54201;SDS011;40108;53.152;5.844;2023-04-24T03:16:47;3.15;;;2.90;;
54201;SDS011;40108;53.152;5.844;2023-04-24T03:19:12;4.55;;;2.70;;
54201;SDS011;40108;53.152;5.844;2023-04-24T03:21:38;3.03;;;2.60;;
54201;SDS011;40108;53.152;5.844;2023-04-24T03:24:06;2.60;;;2.40;;
54201;SDS011;40108;53.152;5.844;2023-04-24T03:26:33;2.58;;;2.10;;
54201;SDS011;40108;53.152;5.844;2023-04-24T03:28:59;2.40;;;2.15;;
54201;SDS011;40108;53.152;5.844;2023-04-24T03:31:24;2.28;;;2.08;;
54201;SDS011;40108;53.152;5.844;2023-04-24T03:33:50;3.83;;;2.65;;
54201;SDS011;40108;53.152;5.844;2023-04-24T03:36:16;3.20;;;2.95;;
54201;SDS011;40108;53.152;5.844;2023-04-24T03:38:42;5.70;;;3.63;;
54201;SDS011;40108;53.152;5.844;2023-04-24T03:41:08;5.80;;;4.53;;
54201;SDS011;40108;53.152;5.844;2023-04-24T03:43:34;11.30;;;5.28;;
54201;SDS011;40108;53.152;5.844;2023-04-24T03:46:00;7.30;;;5.75;;
54201;SDS011;40108;53.152;5.844;2023-04-24T03:48:25;7.18;;;6.45;;
54201;SDS011;40108;53.152;5.844;2023-04-24T03:50:51;7.88;;;5.60;;
54201;SDS011;40108;53.152;5.844;2023-04-24T03:53:17;6.00;;;5.25;;
54201;SDS011;40108;53.152;5.844;2023-04-24T03:55:42;6.25;;;5.65;;
54201;SDS011;40108;53.152;5.844;2023-04-24T03:58:08;8.43;;;7.45;;
54201;SDS011;40108;53.152;5.844;2023-04-24T04:00:34;7.28;;;6.15;;
54201;SDS011;40108;53.152;5.844;2023-04-24T04:03:00;9.48;;;6.47;;
54201;SDS011;40108;53.152;5.844;2023-04-24T04:05:25;8.02;;;7.18;;
54201;SDS011;40108;53.152;5.844;2023-04-24T04:07:51;9.73;;;6.95;;
54201;SDS011;40108;53.152;5.844;2023-04-24T04:10:17;8.02;;;6.82;;
54201;SDS011;40108;53.152;5.844;2023-04-24T04:12:43;8.32;;;6.07;;
54201;SDS011;40108;53.152;5.844;2023-04-24T04:15:09;7.60;;;5.60;;
54201;SDS011;40108;53.152;5.844;2023-04-24T04:17:35;7.65;;;6.28;;
54201;SDS011;40108;53.152;5.844;2023-04-24T04:20:03;8.90;;;6.82;;
54201;SDS011;40108;53.152;5.844;2023-04-24T04:22:33;7.63;;;6.88;;
54201;SDS011;40108;53.152;5.844;2023-04-24T04:24:59;9.88;;;7.10;;
54201;SDS011;40108;53.152;5.844;2023-04-24T04:27:25;13.23;;;7.97;;
54201;SDS011;40108;53.152;5.844;2023-04-24T04:29:51;11.32;;;7.63;;
54201;SDS011;40108;53.152;5.844;2023-04-24T04:32:17;9.15;;;7.75;;
54201;SDS011;40108;53.152;5.844;2023-04-24T04:34:43;9.40;;;7.57;;
54201;SDS011;40108;53.152;5.844;2023-04-24T04:37:10;7.95;;;6.10;;
54201;SDS011;40108;53.152;5.844;2023-04-24T04:39:37;6.10;;;5.13;;
54201;SDS011;40108;53.152;5.844;2023-04-24T04:42:03;5.85;;;4.22;;
54201;SDS011;40108;53.152;5.844;2023-04-24T04:44:29;5.68;;;3.55;;
54201;SDS011;40108;53.152;5.844;2023-04-24T04:46:55;3.78;;;2.80;;
54201;SDS011;40108;53.152;5.844;2023-04-24T04:49:22;6.60;;;2.90;;
54201;SDS011;40108;53.152;5.844;2023-04-24T04:51:49;2.42;;;2.00;;
54201;SDS011;40108;53.152;5.844;2023-04-24T04:54:16;4.45;;;2.75;;
54201;SDS011;40108;53.152;5.844;2023-04-24T04:56:41;4.35;;;3.50;;
54201;SDS011;40108;53.152;5.844;2023-04-24T04:59:07;7.78;;;5.00;;
54201;SDS011;40108;53.152;5.844;2023-04-24T05:01:33;9.82;;;6.53;;
54201;SDS011;40108;53.152;5.844;2023-04-24T05:03:58;12.52;;;7.47;;
54201;SDS011;40108;53.152;5.844;2023-04-24T05:06:24;17.52;;;8.57;;
54201;SDS011;40108;53.152;5.844;2023-04-24T05:08:50;17.42;;;9.95;;
54201;SDS011;40108;53.152;5.844;2023-04-24T05:11:21;16.00;;;10.05;;
54201;SDS011;40108;53.152;5.844;2023-04-24T05:13:46;13.02;;;10.20;;
54201;SDS011;40108;53.152;5.844;2023-04-24T05:16:12;19.70;;;11.90;;
54201;SDS011;40108;53.152;5.844;2023-04-24T05:18:38;19.33;;;11.18;;
54201;SDS011;40108;53.152;5.844;2023-04-24T05:21:03;17.83;;;10.55;;
54201;SDS011;40108;53.152;5.844;2023-04-24T05:23:29;9.15;;;6.70;;
54201;SDS011;40108;53.152;5.844;2023-04-24T05:25:55;9.70;;;5.85;;
54201;SDS011;40108;53.152;5.844;2023-04-24T05:28:21;6.22;;;4.40;;
54201;SDS011;40108;53.152;5.844;2023-04-24T05:30:47;5.40;;;4.90;;
54201;SDS011;40108;53.152;5.844;2023-04-24T05:33:12;8.15;;;4.93;;
54201;SDS011;40108;53.152;5.844;2023-04-24T05:35:40;6.93;;;3.80;;
54201;SDS011;40108;53.152;5.844;2023-04-24T05:38:11;6.95;;;4.03;;
54201;SDS011;40108;53.152;5.844;2023-04-24T05:40:37;3.92;;;3.15;;
54201;SDS011;40108;53.152;5.844;2023-04-24T05:43:02;4.35;;;3.88;;
54201;SDS011;40108;53.152;5.844;2023-04-24T05:45:28;4.63;;;3.90;;
54201;SDS011;40108;53.152;5.844;2023-04-24T05:47:54;8.00;;;4.22;;
54201;SDS011;40108;53.152;5.844;2023-04-24T05:50:20;8.25;;;5.10;;
54201;SDS011;40108;53.152;5.844;2023-04-24T05:52:45;8.25;;;5.32;;
54201;SDS011;40108;53.152;5.844;2023-04-24T05:55:11;8.30;;;4.40;;
54201;SDS011;40108;53.152;5.844;2023-04-24T05:57:37;5.25;;;3.50;;
54201;SDS011;40108;53.152;5.844;2023-04-24T06:00:03;4.90;;;3.00;;
54201;SDS011;40108;53.152;5.844;2023-04-24T06:02:30;9.95;;;3.10;;
54201;SDS011;40108;53.152;5.844;2023-04-24T06:05:00;5.20;;;2.80;;
54201;SDS011;40108;53.152;5.844;2023-04-24T06:07:26;9.63;;;3.60;;
54201;SDS011;40108;53.152;5.844;2023-04-24T06:09:52;5.53;;;3.00;;
54201;SDS011;40108;53.152;5.844;2023-04-24T06:12:17;5.13;;;3.17;;
54201;SDS011;40108;53.152;5.844;2023-04-24T06:14:43;6.97;;;2.70;;
54201;SDS011;40108;53.152;5.844;2023-04-24T06:17:09;6.50;;;2.70;;
54201;SDS011;40108;53.152;5.844;2023-04-24T06:19:34;11.73;;;2.28;;
54201;SDS011;40108;53.152;5.844;2023-04-24T06:22:00;3.15;;;1.90;;
54201;SDS011;40108;53.152;5.844;2023-04-24T06:24:29;8.13;;;2.22;;
54201;SDS011;40108;53.152;5.844;2023-04-24T06:26:55;4.47;;;2.00;;
54201;SDS011;40108;53.152;5.844;2023-04-24T06:29:22;9.73;;;2.22;;
54201;SDS011;40108;53.152;5.844;2023-04-24T06:31:48;7.00;;;2.20;;
54201;SDS011;40108;53.152;5.844;2023-04-24T06:34:13;8.10;;;2.97;;
54201;SDS011;40108;53.152;5.844;2023-04-24T06:36:39;10.45;;;4.60;;
54201;SDS011;40108;53.152;5.844;2023-04-24T06:39:05;13.45;;;5.95;;
54201;SDS011;40108;53.152;5.844;2023-04-24T06:41:31;16.42;;;7.00;;
54201;SDS011;40108;53.152;5.844;2023-04-24T06:43:57;21.70;;;8.95;;
54201;SDS011;40108;53.152;5.844;2023-04-24T06:46:23;23.15;;;10.65;;
54201;SDS011;40108;53.152;5.844;2023-04-24T06:48:51;27.42;;;12.00;;
54201;SDS011;40108;53.152;5.844;2023-04-24T06:51:17;23.95;;;13.88;;
54201;SDS011;40108;53.152;5.844;2023-04-24T06:53:43;22.77;;;13.50;;
54201;SDS011;40108;53.152;5.844;2023-04-24T06:56:09;26.20;;;14.27;;
54201;SDS011;40108;53.152;5.844;2023-04-24T06:58:34;25.67;;;14.45;;
54201;SDS011;40108;53.152;5.844;2023-04-24T07:01:00;33.42;;;14.98;;
54201;SDS011;40108;53.152;5.844;2023-04-24T07:03:26;24.80;;;13.73;;
54201;SDS011;40108;53.152;5.844;2023-04-24T07:05:51;19.58;;;11.85;;
54201;SDS011;40108;53.152;5.844;2023-04-24T07:08:18;21.08;;;11.60;;
54201;SDS011;40108;53.152;5.844;2023-04-24T07:10:45;22.25;;;12.38;;
54201;SDS011;40108;53.152;5.844;2023-04-24T07:13:11;23.35;;;12.60;;
54201;SDS011;40108;53.152;5.844;2023-04-24T07:15:37;21.20;;;12.55;;
54201;SDS011;40108;53.152;5.844;2023-04-24T07:18:02;25.60;;;14.35;;
54201;SDS011;40108;53.152;5.844;2023-04-24T07:20:28;24.08;;;14.48;;
54201;SDS011;40108;53.152;5.844;2023-04-24T07:22:54;30.20;;;15.65;;
54201;SDS011;40108;53.152;5.844;2023-04-24T07:25:19;26.60;;;17.73;;
54201;SDS011;40108;53.152;5.844;2023-04-24T07:27:45;27.73;;;16.58;;
54201;SDS011;40108;53.152;5.844;2023-04-24T07:30:11;32.88;;;18.27;;
54201;SDS011;40108;53.152;5.844;2023-04-24T07:32:37;32.22;;;18.10;;
54201;SDS011;40108;53.152;5.844;2023-04-24T07:35:02;33.20;;;17.35;;
54201;SDS011;40108;53.152;5.844;2023-04-24T07:37:28;20.92;;;15.07;;
54201;SDS011;40108;53.152;5.844;2023-04-24T07:39:54;30.30;;;15.55;;
54201;SDS011;40108;53.152;5.844;2023-04-24T07:42:20;20.45;;;14.18;;
54201;SDS011;40108;53.152;5.844;2023-04-24T07:44:46;20.92;;;12.52;;
54201;SDS011;40108;53.152;5.844;2023-04-24T07:47:12;20.15;;;11.02;;
54201;SDS011;40108;53.152;5.844;2023-04-24T07:49:41;15.60;;;10.38;;
54201;SDS011;40108;53.152;5.844;2023-04-24T07:52:07;17.35;;;10.52;;
54201;SDS011;40108;53.152;5.844;2023-04-24T07:54:33;17.92;;;10.35;;
54201;SDS011;40108;53.152;5.844;2023-04-24T07:56:59;19.90;;;10.52;;
54201;SDS011;40108;53.152;5.844;2023-04-24T07:59:25;21.15;;;10.20;;
54201;SDS011;40108;53.152;5.844;2023-04-24T08:01:51;17.13;;;9.18;;
54201;SDS011;40108;53.152;5.844;2023-04-24T08:04:17;13.38;;;7.53;;
54201;SDS011;40108;53.152;5.844;2023-04-24T08:06:43;19.38;;;8.27;;
54201;SDS011;40108;53.152;5.844;2023-04-24T08:09:09;14.55;;;7.60;;
54201;SDS011;40108;53.152;5.844;2023-04-24T08:11:35;18.70;;;8.15;;
54201;SDS011;40108;53.152;5.844;2023-04-24T08:14:00;16.90;;;7.88;;
54201;SDS011;40108;53.152;5.844;2023-04-24T08:16:26;13.80;;;7.82;;
54201;SDS011;40108;53.152;5.844;2023-04-24T08:18:52;18.70;;;7.80;;
54201;SDS011;40108;53.152;5.844;2023-04-24T08:21:18;19.73;;;7.68;;
54201;SDS011;40108;53.152;5.844;2023-04-24T08:23:45;17.25;;;8.05;;
54201;SDS011;40108;53.152;5.844;2023-04-24T08:26:11;17.92;;;7.43;;
54201;SDS011;40108;53.152;5.844;2023-04-24T08:28:38;15.90;;;7.90;;
54201;SDS011;40108;53.152;5.844;2023-04-24T08:31:04;13.57;;;7.55;;
54201;SDS011;40108;53.152;5.844;2023-04-24T08:33:30;16.42;;;7.18;;
54201;SDS011;40108;53.152;5.844;2023-04-24T08:36:06;18.20;;;6.75;;
54201;SDS011;40108;53.152;5.844;2023-04-24T08:38:32;13.35;;;6.28;;
54201;SDS011;40108;53.152;5.844;2023-04-24T08:40:59;15.55;;;5.70;;
54201;SDS011;40108;53.152;5.844;2023-04-24T08:43:26;13.70;;;4.75;;
54201;SDS011;40108;53.152;5.844;2023-04-24T08:45:52;11.50;;;4.78;;
54201;SDS011;40108;53.152;5.844;2023-04-24T08:48:21;11.23;;;4.80;;
54201;SDS011;40108;53.152;5.844;2023-04-24T08:50:48;16.58;;;4.95;;
54201;SDS011;40108;53.152;5.844;2023-04-24T08:53:17;12.35;;;4.32;;
54201;SDS011;40108;53.152;5.844;2023-04-24T08:55:43;9.57;;;4.10;;
54201;SDS011;40108;53.152;5.844;2023-04-24T08:58:13;13.15;;;4.55;;
54201;SDS011;40108;53.152;5.844;2023-04-24T09:00:40;8.93;;;3.80;;
54201;SDS011;40108;53.152;5.844;2023-04-24T09:03:11;9.18;;;3.90;;
54201;SDS011;40108;53.152;5.844;2023-04-24T09:05:46;10.50;;;3.13;;
54201;SDS011;40108;53.152;5.844;2023-04-24T09:08:13;13.23;;;3.83;;
54201;SDS011;40108;53.152;5.844;2023-04-24T09:10:39;10.93;;;3.70;;
54201;SDS011;40108;53.152;5.844;2023-04-24T09:13:06;17.70;;;4.05;;
54201;SDS011;40108;53.152;5.844;2023-04-24T09:15:34;14.48;;;3.90;;
54201;SDS011;40108;53.152;5.844;2023-04-24T09:18:00;11.65;;;3.17;;
54201;SDS011;40108;53.152;5.844;2023-04-24T09:20:26;15.55;;;3.67;;
54201;SDS011;40108;53.152;5.844;2023-04-24T09:22:56;10.52;;;3.20;;
54201;SDS011;40108;53.152;5.844;2023-04-24T09:25:24;14.18;;;3.50;;
54201;SDS011;40108;53.152;5.844;2023-04-24T09:28:04;15.95;;;3.25;;
54201;SDS011;40108;53.152;5.844;2023-04-24T09:30:31;13.40;;;2.85;;
54201;SDS011;40108;53.152;5.844;2023-04-24T09:33:10;15.32;;;2.83;;
54201;SDS011;40108;53.152;5.844;2023-04-24T09:35:40;12.15;;;3.10;;
54201;SDS011;40108;53.152;5.844;2023-04-24T09:38:18;10.90;;;3.17;;
54201;SDS011;40108;53.152;5.844;2023-04-24T09:40:45;13.30;;;2.80;;
54201;SDS011;40108;53.152;5.844;2023-04-24T09:43:11;14.45;;;3.50;;
54201;SDS011;40108;53.152;5.844;2023-04-24T09:45:37;11.60;;;2.70;;
54201;SDS011;40108;53.152;5.844;2023-04-24T09:48:04;8.95;;;2.17;;
54201;SDS011;40108;53.152;5.844;2023-04-24T09:50:33;9.88;;;2.75;;
54201;SDS011;40108;53.152;5.844;2023-04-24T09:53:03;9.25;;;2.70;;
54201;SDS011;40108;53.152;5.844;2023-04-24T09:55:30;16.23;;;3.03;;
54201;SDS011;40108;53.152;5.844;2023-04-24T09:57:57;11.02;;;2.35;;
54201;SDS011;40108;53.152;5.844;2023-04-24T10:02:55;13.63;;;2.30;;
54201;SDS011;40108;53.152;5.844;2023-04-24T10:05:35;16.45;;;3.25;;
54201;SDS011;40108;53.152;5.844;2023-04-24T10:08:06;12.52;;;2.58;;
54201;SDS011;40108;53.152;5.844;2023-04-24T10:10:38;15.30;;;2.40;;
54201;SDS011;40108;53.152;5.844;2023-04-24T10:13:11;10.43;;;2.80;;
54201;SDS011;40108;53.152;5.844;2023-04-24T10:15:40;10.75;;;2.05;;
54201;SDS011;40108;53.152;5.844;2023-04-24T10:18:06;13.30;;;1.95;;
54201;SDS011;40108;53.152;5.844;2023-04-24T10:20:34;19.00;;;2.92;;
54201;SDS011;40108;53.152;5.844;2023-04-24T10:23:01;10.85;;;1.70;;
54201;SDS011;40108;53.152;5.844;2023-04-24T10:25:28;11.88;;;2.33;;
54201;SDS011;40108;53.152;5.844;2023-04-24T10:27:56;10.77;;;2.00;;
54201;SDS011;40108;53.152;5.844;2023-04-24T10:30:24;10.25;;;1.98;;
54201;SDS011;40108;53.152;5.844;2023-04-24T10:32:51;9.77;;;1.88;;
54201;SDS011;40108;53.152;5.844;2023-04-24T10:35:17;17.58;;;2.47;;
54201;SDS011;40108;53.152;5.844;2023-04-24T10:37:51;13.40;;;2.10;;
54201;SDS011;40108;53.152;5.844;2023-04-24T10:40:30;8.93;;;1.65;;
54201;SDS011;40108;53.152;5.844;2023-04-24T10:42:58;9.07;;;1.70;;
54201;SDS011;40108;53.152;5.844;2023-04-24T10:45:24;13.95;;;1.75;;
54201;SDS011;40108;53.152;5.844;2023-04-24T10:47:51;13.85;;;1.90;;
54201;SDS011;40108;53.152;5.844;2023-04-24T10:50:28;8.25;;;1.52;;
54201;SDS011;40108;53.152;5.844;2023-04-24T10:53:05;13.25;;;1.95;;
54201;SDS011;40108;53.152;5.844;2023-04-24T10:58:12;8.98;;;2.10;;
54201;SDS011;40108;53.152;5.844;2023-04-24T11:00:40;7.10;;;1.88;;
54201;SDS011;40108;53.152;5.844;2023-04-24T11:03:25;10.63;;;2.53;;
54201;SDS011;40108;53.152;5.844;2023-04-24T11:06:08;9.68;;;2.15;;
54201;SDS011;40108;53.152;5.844;2023-04-24T11:08:38;12.23;;;2.20;;
54201;SDS011;40108;53.152;5.844;2023-04-24T11:14:21;13.82;;;1.90;;
54201;SDS011;40108;53.152;5.844;2023-04-24T11:19:17;12.82;;;3.47;;
54201;SDS011;40108;53.152;5.844;2023-04-24T11:22:01;7.53;;;1.75;;
54201;SDS011;40108;53.152;5.844;2023-04-24T11:27:06;6.65;;;1.58;;
54201;SDS011;40108;53.152;5.844;2023-04-24T11:29:49;6.53;;;1.35;;
54201;SDS011;40108;53.152;5.844;2023-04-24T11:32:24;7.43;;;1.40;;
54201;SDS011;40108;53.152;5.844;2023-04-24T11:34:57;4.68;;;1.05;;
54201;SDS011;40108;53.152;5.844;2023-04-24T11:39:53;5.88;;;1.10;;
54201;SDS011;40108;53.152;5.844;2023-04-24T11:42:21;6.47;;;1.20;;
54201;SDS011;40108;53.152;5.844;2023-04-24T11:44:48;10.95;;;1.20;;
54201;SDS011;40108;53.152;5.844;2023-04-24T11:47:16;5.65;;;1.20;;
54201;SDS011;40108;53.152;5.844;2023-04-24T11:49:42;7.93;;;1.23;;
54201;SDS011;40108;53.152;5.844;2023-04-24T11:52:08;7.95;;;1.42;;
54201;SDS011;40108;53.152;5.844;2023-04-24T11:54:35;6.40;;;1.05;;
54201;SDS011;40108;53.152;5.844;2023-04-24T11:57:03;5.95;;;1.52;;
54201;SDS011;40108;53.152;5.844;2023-04-24T11:59:35;13.23;;;1.42;;
54201;SDS011;40108;53.152;5.844;2023-04-24T12:02:02;8.40;;;1.60;;
54201;SDS011;40108;53.152;5.844;2023-04-24T12:04:37;7.82;;;1.38;;
54201;SDS011;40108;53.152;5.844;2023-04-24T12:07:06;7.53;;;1.10;;
54201;SDS011;40108;53.152;5.844;2023-04-24T12:09:42;6.63;;;1.70;;
54201;SDS011;40108;53.152;5.844;2023-04-24T12:12:12;4.55;;;0.70;;
54201;SDS011;40108;53.152;5.844;2023-04-24T12:14:49;7.45;;;0.90;;
54201;SDS011;40108;53.152;5.844;2023-04-24T12:17:17;6.47;;;0.90;;
54201;SDS011;40108;53.152;5.844;2023-04-24T12:19:50;6.30;;;0.80;;
54201;SDS011;40108;53.152;5.844;2023-04-24T12:22:15;6.88;;;1.02;;
54201;SDS011;40108;53.152;5.844;2023-04-24T12:25:01;4.32;;;0.60;;
54201;SDS011;40108;53.152;5.844;2023-04-24T12:27:31;9.10;;;0.98;;
54201;SDS011;40108;53.152;5.844;2023-04-24T12:29:58;4.45;;;0.60;;
54201;SDS011;40108;53.152;5.844;2023-04-24T12:32:26;3.03;;;0.40;;
54201;SDS011;40108;53.152;5.844;2023-04-24T12:34:53;5.32;;;0.80;;
54201;SDS011;40108;53.152;5.844;2023-04-24T12:37:20;3.47;;;0.70;;
54201;SDS011;40108;53.152;5.844;2023-04-24T12:42:28;5.68;;;1.00;;
54201;SDS011;40108;53.152;5.844;2023-04-24T12:44:59;1.77;;;0.57;;
54201;SDS011;40108;53.152;5.844;2023-04-24T12:47:29;4.40;;;0.55;;
54201;SDS011;40108;53.152;5.844;2023-04-24T12:49:56;3.05;;;0.90;;
54201;SDS011;40108;53.152;5.844;2023-04-24T12:52:22;2.63;;;0.70;;
54201;SDS011;40108;53.152;5.844;2023-04-24T12:54:54;4.70;;;0.77;;
54201;SDS011;40108;53.152;5.844;2023-04-24T12:57:22;4.80;;;0.73;;
54201;SDS011;40108;53.152;5.844;2023-04-24T12:59:49;7.93;;;1.00;;
54201;SDS011;40108;53.152;5.844;2023-04-24T13:02:15;7.57;;;1.42;;
54201;SDS011;40108;53.152;5.844;2023-04-24T13:04:45;5.55;;;1.00;;
54201;SDS011;40108;53.152;5.844;2023-04-24T13:07:12;5.75;;;1.27;;
54201;SDS011;40108;53.152;5.844;2023-04-24T13:09:39;8.85;;;1.73;;
54201;SDS011;40108;53.152;5.844;2023-04-24T13:12:05;13.73;;;1.80;;
54201;SDS011;40108;53.152;5.844;2023-04-24T13:14:31;9.95;;;1.50;;
54201;SDS011;40108;53.152;5.844;2023-04-24T13:16:58;12.90;;;2.58;;
54201;SDS011;40108;53.152;5.844;2023-04-24T13:19:24;13.95;;;2.50;;
54201;SDS011;40108;53.152;5.844;2023-04-24T13:21:51;11.18;;;2.20;;
54201;SDS011;40108;53.152;5.844;2023-04-24T13:24:17;12.73;;;2.33;;
54201;SDS011;40108;53.152;5.844;2023-04-24T13:26:43;20.10;;;2.47;;
54201;SDS011;40108;53.152;5.844;2023-04-24T13:29:09;12.57;;;2.15;;
54201;SDS011;40108;53.152;5.844;2023-04-24T13:31:35;11.40;;;2.28;;
54201;SDS011;40108;53.152;5.844;2023-04-24T13:34:01;19.55;;;2.95;;
54201;SDS011;40108;53.152;5.844;2023-04-24T13:36:28;16.05;;;2.70;;
54201;SDS011;40108;53.152;5.844;2023-04-24T13:38:55;11.13;;;2.55;;
54201;SDS011;40108;53.152;5.844;2023-04-24T13:41:21;11.77;;;2.63;;
54201;SDS011;40108;53.152;5.844;2023-04-24T13:43:47;12.73;;;2.13;;
54201;SDS011;40108;53.152;5.844;2023-04-24T13:46:12;9.02;;;1.50;;
54201;SDS011;40108;53.152;5.844;2023-04-24T13:48:38;9.73;;;2.78;;
54201;SDS011;40108;53.152;5.844;2023-04-24T13:51:04;9.52;;;1.80;;
54201;SDS011;40108;53.152;5.844;2023-04-24T13:53:30;12.02;;;2.10;;
54201;SDS011;40108;53.152;5.844;2023-04-24T13:55:55;12.45;;;2.17;;
54201;SDS011;40108;53.152;5.844;2023-04-24T13:58:21;11.02;;;2.30;;
54201;SDS011;40108;53.152;5.844;2023-04-24T14:00:47;9.55;;;2.20;;
54201;SDS011;40108;53.152;5.844;2023-04-24T14:03:12;15.95;;;2.58;;
54201;SDS011;40108;53.152;5.844;2023-04-24T14:05:38;9.93;;;2.17;;
54201;SDS011;40108;53.152;5.844;2023-04-24T14:08:04;13.45;;;2.50;;
54201;SDS011;40108;53.152;5.844;2023-04-24T14:10:30;9.52;;;2.10;;
54201;SDS011;40108;53.152;5.844;2023-04-24T14:12:56;9.25;;;1.98;;
54201;SDS011;40108;53.152;5.844;2023-04-24T14:15:23;22.30;;;2.88;;
54201;SDS011;40108;53.152;5.844;2023-04-24T14:17:48;19.38;;;2.75;;
54201;SDS011;40108;53.152;5.844;2023-04-24T14:20:15;17.73;;;3.15;;
54201;SDS011;40108;53.152;5.844;2023-04-24T14:22:40;13.18;;;2.47;;
54201;SDS011;40108;53.152;5.844;2023-04-24T14:25:06;14.68;;;2.90;;
54201;SDS011;40108;53.152;5.844;2023-04-24T14:27:32;17.80;;;3.03;;
54201;SDS011;40108;53.152;5.844;2023-04-24T14:29:59;17.98;;;3.13;;
54201;SDS011;40108;53.152;5.844;2023-04-24T14:32:25;13.40;;;2.65;;
54201;SDS011;40108;53.152;5.844;2023-04-24T14:34:51;14.02;;;2.92;;
54201;SDS011;40108;53.152;5.844;2023-04-24T14:37:17;14.90;;;3.65;;
54201;SDS011;40108;53.152;5.844;2023-04-24T14:39:43;15.93;;;3.30;;
54201;SDS011;40108;53.152;5.844;2023-04-24T14:42:10;15.68;;;3.67;;
54201;SDS011;40108;53.152;5.844;2023-04-24T14:44:35;17.17;;;3.50;;
54201;SDS011;40108;53.152;5.844;2023-04-24T14:47:01;14.25;;;3.50;;
54201;SDS011;40108;53.152;5.844;2023-04-24T14:49:27;17.90;;;3.47;;
54201;SDS011;40108;53.152;5.844;2023-04-24T14:51:53;15.75;;;3.58;;
54201;SDS011;40108;53.152;5.844;2023-04-24T14:54:18;19.48;;;3.60;;
54201;SDS011;40108;53.152;5.844;2023-04-24T14:56:44;19.33;;;3.40;;